Time;durP1;ratioP1;P1;durP2;ratioP2;P2;SDS_P1;SDS_P2;PMS_P1;PMS_P2;Temp;Humidity;BMP_temperature;BMP_pressure;BME280_temperature;BME280_humidity;BME280_pressure;Samples;Min_cycle;Max_cycle;Signal;HPM_P1;HPM_P2
2021/12/03 00:00:43;;;;;;;5.97;2.67;;;0.40;99.90;;;;;;4683403;30;20390;-81
2021/12/03 00:03:10;;;;;;;7.80;3.30;;;0.30;99.90;;;;;;4696241;30;20041;-82
2021/12/03 00:05:37;;;;;;;5.23;2.97;;;0.30;99.90;;;;;;4682828;30;20300;-81
2021/12/03 00:08:05;;;;;;;7.30;2.60;;;0.40;99.90;;;;;;4698810;30;20311;-81
2021/12/03 00:10:31;;;;;;;4.80;2.70;;;0.40;99.90;;;;;;4697395;30;20379;-81
2021/12/03 00:13:00;;;;;;;5.53;2.50;;;0.40;99.90;;;;;;4696376;30;20296;-82
2021/12/03 00:15:28;;;;;;;6.07;2.77;;;0.40;99.90;;;;;;4698226;30;20312;-82
2021/12/03 00:17:54;;;;;;;4.90;3.30;;;0.40;99.90;;;;;;4681845;30;20638;-82
2021/12/03 00:20:22;;;;;;;4.27;2.70;;;0.40;99.90;;;;;;4684092;30;20358;-82
2021/12/03 00:22:52;;;;;;;4.97;2.60;;;0.40;99.90;;;;;;4684186;30;20304;-81
2021/12/03 00:25:18;;;;;;;6.80;2.90;;;0.40;99.90;;;;;;4700025;30;20405;-82
2021/12/03 00:27:44;;;;;;;6.37;2.60;;;0.50;99.90;;;;;;4684480;30;20320;-81
2021/12/03 00:30:12;;;;;;;3.63;2.77;;;0.50;99.90;;;;;;4683681;30;20296;-81
2021/12/03 00:32:39;;;;;;;5.23;2.70;;;0.50;99.90;;;;;;4698128;30;20682;-81
2021/12/03 00:35:06;;;;;;;5.07;2.70;;;0.50;99.90;;;;;;4670482;30;20383;-81
2021/12/03 00:37:32;;;;;;;5.90;3.00;;;0.60;99.90;;;;;;4684748;30;20697;-81
2021/12/03 00:39:58;;;;;;;5.07;2.90;;;0.50;99.90;;;;;;4682434;30;20366;-81
2021/12/03 00:42:28;;;;;;;3.53;2.80;;;0.60;99.90;;;;;;4697351;30;20300;-82
2021/12/03 00:44:55;;;;;;;6.47;2.97;;;0.60;99.90;;;;;;4668716;30;20087;-82
2021/12/03 00:47:22;;;;;;;8.30;3.20;;;0.60;99.90;;;;;;4684599;30;20299;-82
2021/12/03 00:49:48;;;;;;;6.63;3.40;;;0.60;99.90;;;;;;4684880;30;20304;-82
2021/12/03 00:52:14;;;;;;;7.23;3.67;;;0.60;99.90;;;;;;4682394;30;20296;-82
2021/12/03 00:54:41;;;;;;;7.87;4.07;;;0.60;99.90;;;;;;4683840;30;20048;-82
2021/12/03 00:57:07;;;;;;;8.50;4.40;;;0.70;99.90;;;;;;4697981;30;20065;-82
2021/12/03 00:59:32;;;;;;;10.77;4.30;;;0.70;99.90;;;;;;4682291;30;20299;-82
2021/12/03 01:01:58;;;;;;;11.13;5.40;;;0.60;99.90;;;;;;4683377;30;20304;-82
2021/12/03 01:04:24;;;;;;;9.43;4.70;;;0.70;99.90;;;;;;4684575;30;20041;-81
2021/12/03 01:06:50;;;;;;;7.03;4.80;;;0.70;99.90;;;;;;4684678;30;20519;-82
2021/12/03 01:09:16;;;;;;;9.67;5.60;;;0.70;99.90;;;;;;4666721;30;20088;-82
2021/12/03 01:11:42;;;;;;;8.93;5.50;;;0.70;99.90;;;;;;4697932;30;20085;-82
2021/12/03 01:14:08;;;;;;;10.10;5.10;;;0.70;99.90;;;;;;4695185;30;22199;-82
2021/12/03 01:16:35;;;;;;;11.20;6.47;;;0.80;99.90;;;;;;4670230;30;20052;-82
2021/12/03 01:19:02;;;;;;;14.03;6.60;;;0.80;99.90;;;;;;4685087;30;20049;-82
2021/12/03 01:21:28;;;;;;;11.73;5.63;;;0.80;99.90;;;;;;4699436;30;20308;-82
2021/12/03 01:23:55;;;;;;;13.80;6.97;;;0.80;99.90;;;;;;4668394;30;20659;-81
2021/12/03 01:26:21;;;;;;;11.67;6.80;;;0.90;99.90;;;;;;4684769;30;20046;-82
2021/12/03 01:28:48;;;;;;;14.50;6.97;;;0.90;99.90;;;;;;4667515;30;20304;-82
2021/12/03 01:31:17;;;;;;;11.70;7.07;;;0.90;99.90;;;;;;4659765;30;20654;-82
2021/12/03 01:33:45;;;;;;;12.07;6.53;;;0.90;99.90;;;;;;4682812;30;20293;-82
2021/12/03 01:36:12;;;;;;;11.47;6.37;;;1.00;99.90;;;;;;4682976;30;20367;-82
2021/12/03 01:38:38;;;;;;;10.17;5.73;;;1.00;99.90;;;;;;4683722;30;20410;-82
2021/12/03 01:41:04;;;;;;;12.37;6.57;;;1.00;99.90;;;;;;4696321;30;20296;-82
2021/12/03 01:43:30;;;;;;;11.03;6.30;;;1.00;99.90;;;;;;4668028;30;20351;-82
2021/12/03 01:46:00;;;;;;;10.53;6.27;;;1.00;99.90;;;;;;4666267;30;20093;-82
2021/12/03 01:48:26;;;;;;;15.03;6.40;;;1.10;99.90;;;;;;4682706;30;20304;-82
2021/12/03 01:50:53;;;;;;;13.27;6.47;;;1.00;99.90;;;;;;4661108;30;20296;-83
2021/12/03 01:53:23;;;;;;;11.37;6.70;;;1.10;99.90;;;;;;4668331;30;20371;-82
2021/12/03 01:55:50;;;;;;;11.87;7.07;;;1.10;99.90;;;;;;4698119;30;20832;-82
2021/12/03 01:58:16;;;;;;;14.63;7.60;;;1.10;99.90;;;;;;4680018;30;20422;-82
2021/12/03 02:00:53;;;;;;;11.23;7.70;;;1.10;99.90;;;;;;4684829;30;20673;-82
2021/12/03 02:03:22;;;;;;;13.63;7.80;;;1.10;99.90;;;;;;4681173;30;20292;-83
2021/12/03 02:05:49;;;;;;;15.73;7.63;;;1.00;99.90;;;;;;4684364;30;20291;-82
2021/12/03 02:08:14;;;;;;;14.17;8.20;;;1.10;99.90;;;;;;4681945;30;20300;-82
2021/12/03 02:10:41;;;;;;;14.93;8.87;;;1.10;99.90;;;;;;4683535;30;20306;-82
2021/12/03 02:13:08;;;;;;;12.53;8.60;;;1.10;99.90;;;;;;4698281;30;20057;-82
2021/12/03 02:15:34;;;;;;;16.50;10.07;;;1.20;99.90;;;;;;4668914;30;20308;-83
2021/12/03 02:18:00;;;;;;;19.27;10.40;;;1.10;99.90;;;;;;4682632;30;20323;-82
2021/12/03 02:20:26;;;;;;;15.23;10.43;;;1.10;99.90;;;;;;4683281;30;20793;-82
2021/12/03 02:22:52;;;;;;;16.87;11.20;;;1.20;99.90;;;;;;4694686;30;20050;-81
2021/12/03 02:25:22;;;;;;;21.57;13.03;;;1.10;99.90;;;;;;4666526;30;20851;-82
2021/12/03 02:27:54;;;;;;;17.17;11.37;;;1.10;99.90;;;;;;4684335;30;20396;-82
2021/12/03 02:30:21;;;;;;;21.43;14.17;;;1.20;99.90;;;;;;4683598;30;20312;-81
2021/12/03 02:32:49;;;;;;;20.53;14.73;;;1.20;99.90;;;;;;4668283;30;20293;-82
2021/12/03 02:35:19;;;;;;;20.73;14.07;;;1.10;99.90;;;;;;4669538;30;20330;-82
2021/12/03 02:37:46;;;;;;;21.20;14.37;;;1.20;99.90;;;;;;4682990;30;20414;-82
2021/12/03 02:40:14;;;;;;;20.80;14.23;;;1.20;99.90;;;;;;4684120;30;20296;-82
2021/12/03 02:42:41;;;;;;;21.97;14.90;;;1.20;99.90;;;;;;4682611;30;20677;-82
2021/12/03 02:45:07;;;;;;;22.43;14.50;;;1.20;99.90;;;;;;4692607;30;20292;-82
2021/12/03 02:47:34;;;;;;;24.13;15.17;;;1.20;99.90;;;;;;4664840;30;20305;-82
2021/12/03 02:49:59;;;;;;;19.93;14.27;;;1.10;99.90;;;;;;4683333;30;20300;-82
2021/12/03 02:52:25;;;;;;;21.80;15.17;;;1.20;99.90;;;;;;4683636;30;20366;-83
2021/12/03 02:54:51;;;;;;;21.30;14.87;;;1.20;99.90;;;;;;4680256;30;20100;-82
2021/12/03 02:57:17;;;;;;;21.03;15.30;;;1.20;99.90;;;;;;4698588;30;20050;-83
2021/12/03 02:59:43;;;;;;;26.13;16.27;;;1.20;99.90;;;;;;4682254;30;20045;-82
2021/12/03 03:02:09;;;;;;;21.57;16.17;;;1.20;99.90;;;;;;4683394;30;20049;-82
2021/12/03 03:04:34;;;;;;;25.40;15.93;;;1.20;99.90;;;;;;4682747;30;20300;-80
2021/12/03 03:07:00;;;;;;;23.30;16.43;;;1.20;99.90;;;;;;4681174;30;20054;-82
2021/12/03 03:09:27;;;;;;;21.93;15.50;;;1.20;99.90;;;;;;4684081;30;20057;-82
2021/12/03 03:11:53;;;;;;;26.60;17.20;;;1.20;99.90;;;;;;4696458;30;20455;-82
2021/12/03 03:14:19;;;;;;;22.63;16.57;;;1.20;99.90;;;;;;4675326;30;20305;-82
2021/12/03 03:16:46;;;;;;;24.27;16.90;;;1.20;99.90;;;;;;4694678;30;20515;-82
2021/12/03 03:19:14;;;;;;;23.87;17.30;;;1.30;99.90;;;;;;4682043;30;20306;-83
2021/12/03 03:21:41;;;;;;;23.97;16.20;;;1.20;99.90;;;;;;4695857;30;20406;-83
2021/12/03 03:24:08;;;;;;;23.10;16.23;;;1.30;99.90;;;;;;4675810;30;20306;-82
2021/12/03 03:26:39;;;;;;;21.97;16.03;;;1.20;99.90;;;;;;4695641;30;20331;-81
2021/12/03 03:29:07;;;;;;;27.23;16.67;;;1.20;99.90;;;;;;4696092;30;20754;-83
2021/12/03 03:31:35;;;;;;;25.23;16.50;;;1.10;99.90;;;;;;4700071;30;20288;-82
2021/12/03 03:34:02;;;;;;;24.90;17.30;;;1.10;99.90;;;;;;4696617;30;20375;-82
2021/12/03 03:36:32;;;;;;;22.70;16.00;;;1.10;99.90;;;;;;4685424;30;20338;-82
2021/12/03 03:38:58;;;;;;;23.83;16.07;;;1.10;99.90;;;;;;4681498;30;20312;-82
2021/12/03 03:41:24;;;;;;;24.97;17.37;;;1.00;99.90;;;;;;4700672;30;20303;-83
2021/12/03 03:43:50;;;;;;;24.27;16.40;;;1.00;99.90;;;;;;4685493;30;20323;-82
2021/12/03 03:46:16;;;;;;;22.40;17.50;;;1.00;99.90;;;;;;4696519;30;20529;-82
2021/12/03 03:48:48;;;;;;;23.33;16.43;;;1.00;99.90;;;;;;4701672;30;20296;-82
2021/12/03 03:51:14;;;;;;;24.38;17.30;;;1.00;99.90;;;;;;4701551;30;20048;-82
2021/12/03 03:53:41;;;;;;;26.20;16.80;;;1.00;99.90;;;;;;4658781;30;20045;-82
2021/12/03 03:56:08;;;;;;;26.33;17.37;;;1.10;99.90;;;;;;4698040;30;20053;-81
2021/12/03 03:58:37;;;;;;;23.87;15.70;;;1.00;99.90;;;;;;4685853;30;20292;-82
2021/12/03 04:01:04;;;;;;;23.53;17.37;;;1.00;99.90;;;;;;4667438;30;20538;-82
2021/12/03 04:03:30;;;;;;;24.97;17.47;;;1.00;99.90;;;;;;4685603;30;20650;-82
2021/12/03 04:05:57;;;;;;;26.47;17.63;;;0.90;99.90;;;;;;4663862;30;20297;-82
2021/12/03 04:08:24;;;;;;;25.63;17.47;;;0.90;99.90;;;;;;4699084;30;20390;-80
2021/12/03 04:10:50;;;;;;;26.07;17.63;;;0.90;99.90;;;;;;4684918;30;20351;-82
2021/12/03 04:13:15;;;;;;;26.23;18.20;;;1.00;99.90;;;;;;4667124;30;20806;-80
2021/12/03 04:15:42;;;;;;;26.10;18.27;;;1.00;99.90;;;;;;4662648;30;20313;-80
2021/12/03 04:18:09;;;;;;;25.40;17.73;;;0.90;99.90;;;;;;4681112;30;20399;-80
2021/12/03 04:20:35;;;;;;;24.10;18.97;;;1.00;99.90;;;;;;4681092;30;20328;-80
2021/12/03 04:23:02;;;;;;;25.73;18.00;;;0.90;99.90;;;;;;4671137;30;20304;-79
2021/12/03 04:25:28;;;;;;;24.00;17.10;;;0.90;99.90;;;;;;4682701;30;20332;-80
2021/12/03 04:27:54;;;;;;;27.27;17.73;;;0.90;99.90;;;;;;4685573;30;20296;-80
2021/12/03 04:30:25;;;;;;;25.37;17.47;;;0.90;99.90;;;;;;4667747;30;20297;-80
2021/12/03 04:32:54;;;;;;;25.17;17.03;;;0.90;99.90;;;;;;4698264;30;20050;-80
2021/12/03 04:35:21;;;;;;;21.90;17.37;;;0.90;99.90;;;;;;4685670;30;20847;-80
2021/12/03 04:37:47;;;;;;;29.67;18.80;;;0.90;99.90;;;;;;4698636;30;20355;-80
2021/12/03 04:40:15;;;;;;;23.27;16.97;;;0.80;99.90;;;;;;4685678;30;20295;-81
2021/12/03 04:42:41;;;;;;;25.87;18.53;;;0.80;99.90;;;;;;4698324;30;20295;-80
2021/12/03 04:45:09;;;;;;;28.70;17.90;;;0.80;99.90;;;;;;4696543;30;20300;-80
2021/12/03 04:47:35;;;;;;;26.70;18.07;;;0.80;99.90;;;;;;4668721;30;20393;-80
2021/12/03 04:50:03;;;;;;;24.47;18.53;;;0.80;99.90;;;;;;4697436;30;20292;-80
2021/12/03 04:52:29;;;;;;;26.73;18.80;;;0.80;99.90;;;;;;4699614;30;20304;-81
2021/12/03 04:54:55;;;;;;;27.40;18.53;;;0.80;99.90;;;;;;4669902;30;20312;-80
2021/12/03 04:57:21;;;;;;;24.90;17.97;;;0.80;99.90;;;;;;4666631;30;20052;-80
2021/12/03 04:59:46;;;;;;;21.93;18.00;;;0.80;99.90;;;;;;4698445;30;20191;-80
2021/12/03 05:02:12;;;;;;;24.60;19.00;;;0.80;99.90;;;;;;4683102;30;20612;-81
2021/12/03 05:04:39;;;;;;;21.20;17.73;;;0.70;99.90;;;;;;4683249;30;20061;-81
2021/12/03 05:07:28;;;;;;;28.80;18.10;;;0.70;99.90;;;;;;4678488;30;20118;-81
2021/12/03 05:09:53;;;;;;;24.83;17.87;;;0.80;99.90;;;;;;4692936;30;20319;-81
2021/12/03 05:12:19;;;;;;;23.80;18.60;;;0.70;99.90;;;;;;4679921;30;20304;-82
2021/12/03 05:14:45;;;;;;;24.30;18.03;;;0.70;99.90;;;;;;4671066;30;20318;-81
2021/12/03 05:17:10;;;;;;;28.03;18.83;;;0.70;99.90;;;;;;4668801;30;20053;-81
2021/12/03 05:19:36;;;;;;;21.93;18.20;;;0.70;99.90;;;;;;4667198;30;20503;-80
2021/12/03 05:22:02;;;;;;;24.37;18.00;;;0.70;99.90;;;;;;4675229;30;20549;-80
2021/12/03 05:24:28;;;;;;;25.70;17.70;;;0.70;99.90;;;;;;4685381;30;20518;-80
2021/12/03 05:26:54;;;;;;;24.60;18.03;;;0.70;99.90;;;;;;4670558;30;20045;-81
2021/12/03 05:29:20;;;;;;;24.60;18.00;;;0.70;99.90;;;;;;4669667;30;20042;-80
2021/12/03 05:31:46;;;;;;;24.70;17.40;;;0.70;99.90;;;;;;4668137;30;20309;-80
2021/12/03 05:34:13;;;;;;;26.40;17.73;;;0.70;99.90;;;;;;4661206;30;20682;-80
2021/12/03 05:36:40;;;;;;;22.90;18.33;;;0.70;99.90;;;;;;4694938;30;20061;-81
2021/12/03 05:39:06;;;;;;;24.60;17.90;;;0.70;99.90;;;;;;4695043;30;20304;-81
2021/12/03 05:41:34;;;;;;;27.43;19.43;;;0.70;99.90;;;;;;4682283;30;20790;-80
2021/12/03 05:44:00;;;;;;;25.23;18.97;;;0.60;99.90;;;;;;4682919;30;20670;-80
2021/12/03 05:46:27;;;;;;;26.73;20.87;;;0.70;99.90;;;;;;4696012;30;20311;-81
2021/12/03 05:48:52;;;;;;;26.30;19.53;;;0.80;99.90;;;;;;4683766;30;20293;-81
2021/12/03 05:51:18;;;;;;;25.20;19.00;;;0.80;99.90;;;;;;4671356;30;20299;-81
2021/12/03 05:53:44;;;;;;;25.47;19.53;;;0.80;99.90;;;;;;4669335;30;20111;-81
2021/12/03 05:56:10;;;;;;;24.17;19.27;;;0.90;99.90;;;;;;4676066;30;20162;-81
2021/12/03 05:58:35;;;;;;;26.53;18.53;;;0.80;99.90;;;;;;4677979;30;20054;-81
2021/12/03 06:01:02;;;;;;;26.03;17.77;;;0.80;99.90;;;;;;4665437;30;20041;-80
2021/12/03 06:03:27;;;;;;;32.13;19.43;;;0.90;99.90;;;;;;4677418;30;20056;-81
2021/12/03 06:05:53;;;;;;;26.53;18.17;;;0.90;99.90;;;;;;4681685;30;20379;-81
2021/12/03 06:08:19;;;;;;;28.50;19.07;;;0.90;99.90;;;;;;4680374;30;20104;-81
2021/12/03 06:10:45;;;;;;;24.37;17.83;;;0.90;99.90;;;;;;4684857;30;20450;-81
2021/12/03 06:13:11;;;;;;;30.70;18.57;;;0.90;99.90;;;;;;4669021;30;20367;-81
2021/12/03 06:15:37;;;;;;;25.67;16.37;;;1.00;99.90;;;;;;4667273;30;20065;-81
2021/12/03 06:18:03;;;;;;;25.93;17.00;;;1.00;99.90;;;;;;4669174;30;20050;-80
2021/12/03 06:20:29;;;;;;;28.07;17.50;;;1.00;99.90;;;;;;4682087;30;20051;-81
2021/12/03 06:22:55;;;;;;;25.50;16.60;;;1.00;99.90;;;;;;4695555;30;20347;-81
2021/12/03 06:25:22;;;;;;;26.47;16.40;;;1.00;99.90;;;;;;4680141;30;20344;-81
2021/12/03 06:27:49;;;;;;;26.10;16.80;;;1.10;99.90;;;;;;4673687;30;20052;-81
2021/12/03 06:30:17;;;;;;;23.03;17.07;;;1.10;99.90;;;;;;4693493;30;20302;-81
2021/12/03 06:32:43;;;;;;;25.57;16.33;;;1.20;99.90;;;;;;4676137;30;20306;-81
2021/12/03 06:35:12;;;;;;;24.47;15.73;;;1.10;99.90;;;;;;4666606;30;20666;-81
2021/12/03 06:37:39;;;;;;;21.30;14.43;;;1.20;99.90;;;;;;4678254;30;20045;-80
2021/12/03 06:40:09;;;;;;;27.30;15.67;;;1.20;99.90;;;;;;4678847;30;20957;-81
2021/12/03 06:42:35;;;;;;;21.60;15.13;;;1.20;99.90;;;;;;4693765;30;20742;-81
2021/12/03 06:45:03;;;;;;;19.67;14.03;;;1.20;99.90;;;;;;4666302;30;20392;-81
2021/12/03 06:47:31;;;;;;;21.60;14.87;;;1.20;99.90;;;;;;4692283;30;20077;-81
2021/12/03 06:49:57;;;;;;;23.83;13.97;;;1.20;99.90;;;;;;4668637;30;20366;-81
2021/12/03 06:52:24;;;;;;;22.57;14.50;;;1.20;99.90;;;;;;4667821;30;20304;-81
2021/12/03 06:54:56;;;;;;;20.90;13.73;;;1.30;99.90;;;;;;4684002;30;20840;-81
2021/12/03 06:57:22;;;;;;;21.13;14.17;;;1.30;99.90;;;;;;4660100;30;20801;-81
2021/12/03 06:59:49;;;;;;;20.80;13.33;;;1.30;99.90;;;;;;4673165;30;20722;-80
2021/12/03 07:02:15;;;;;;;20.93;13.50;;;1.30;99.90;;;;;;4694758;30;20411;-80
2021/12/03 07:04:41;;;;;;;22.20;14.57;;;1.40;99.90;;;;;;4682445;30;20395;-81
2021/12/03 07:07:07;;;;;;;27.00;14.83;;;1.40;99.90;;;;;;4701123;30;20046;-81
2021/12/03 07:09:33;;;;;;;21.93;14.33;;;1.40;99.90;;;;;;4684990;30;20363;-81
2021/12/03 07:11:59;;;;;;;24.40;13.83;;;1.30;99.90;;;;;;4669198;30;20324;-81
2021/12/03 07:14:24;;;;;;;20.80;13.20;;;1.40;99.90;;;;;;4672513;30;20250;-82
2021/12/03 07:16:50;;;;;;;21.60;13.60;;;1.40;99.90;;;;;;4690732;30;20042;-81
2021/12/03 07:19:16;;;;;;;22.10;13.47;;;1.40;99.90;;;;;;4674223;30;20612;-81
2021/12/03 07:21:42;;;;;;;25.17;14.70;;;1.50;99.90;;;;;;4680823;30;20065;-81
2021/12/03 07:24:08;;;;;;;26.77;15.30;;;1.50;99.90;;;;;;4674214;30;20065;-80
2021/12/03 07:26:33;;;;;;;25.57;15.23;;;1.40;99.90;;;;;;4687319;30;20309;-80
2021/12/03 07:28:59;;;;;;;29.63;16.70;;;1.50;99.90;;;;;;4672028;30;20434;-80
2021/12/03 07:31:25;;;;;;;28.73;15.70;;;1.50;99.90;;;;;;4701807;30;20438;-78
2021/12/03 07:33:53;;;;;;;29.27;16.97;;;1.50;99.90;;;;;;4699730;30;20404;-81
2021/12/03 07:36:20;;;;;;;31.37;16.77;;;1.50;99.90;;;;;;4665499;30;20053;-79
2021/12/03 07:38:46;;;;;;;27.33;17.17;;;1.50;99.90;;;;;;4684448;30;20312;-79
2021/12/03 07:41:12;;;;;;;31.30;16.60;;;1.50;99.90;;;;;;4685875;30;20296;-79
2021/12/03 07:43:38;;;;;;;28.23;17.10;;;1.50;99.90;;;;;;4669079;30;20498;-79
2021/12/03 07:46:04;;;;;;;31.80;16.70;;;1.50;99.90;;;;;;4698515;30;20342;-80
2021/12/03 07:48:30;;;;;;;31.90;18.10;;;1.50;99.90;;;;;;4692975;30;20050;-79
2021/12/03 07:50:57;;;;;;;31.60;17.77;;;1.60;99.90;;;;;;4686358;30;20086;-80
2021/12/03 07:53:24;;;;;;;29.93;17.03;;;1.50;99.90;;;;;;4689869;30;20299;-79
2021/12/03 07:55:51;;;;;;;34.23;16.77;;;1.50;99.90;;;;;;4685803;30;20315;-79
2021/12/03 07:58:19;;;;;;;32.90;17.60;;;1.50;99.90;;;;;;4685862;30;20296;-79
2021/12/03 08:00:46;;;;;;;29.40;17.03;;;1.60;99.90;;;;;;4682352;30;21592;-79
2021/12/03 08:03:13;;;;;;;34.43;18.33;;;1.60;99.90;;;;;;4694719;30;20292;-79
2021/12/03 08:05:39;;;;;;;30.43;17.50;;;1.50;99.90;;;;;;4684764;30;20296;-79
2021/12/03 08:08:05;;;;;;;37.80;19.20;;;1.60;99.90;;;;;;4672345;30;21105;-80
2021/12/03 08:10:34;;;;;;;31.87;18.80;;;1.60;99.90;;;;;;4698987;30;20654;-79
2021/12/03 08:13:01;;;;;;;33.20;18.47;;;1.60;99.90;;;;;;4687419;30;20296;-79
2021/12/03 08:15:27;;;;;;;36.23;18.57;;;1.60;99.90;;;;;;4699039;30;20092;-79
2021/12/03 08:17:53;;;;;;;35.13;18.17;;;1.60;99.90;;;;;;4668417;30;20722;-79
2021/12/03 08:20:19;;;;;;;32.93;18.87;;;1.60;99.90;;;;;;4684895;30;20049;-79
2021/12/03 08:22:44;;;;;;;32.80;18.67;;;1.60;99.90;;;;;;4700035;30;20049;-79
2021/12/03 08:25:11;;;;;;;33.90;18.00;;;1.60;99.90;;;;;;4670695;30;20060;-79
2021/12/03 08:27:39;;;;;;;32.40;17.97;;;1.70;99.90;;;;;;4702868;30;20088;-79
2021/12/03 08:30:06;;;;;;;33.53;18.93;;;1.70;99.90;;;;;;4698158;30;20295;-79
2021/12/03 08:32:32;;;;;;;36.73;19.23;;;1.70;99.90;;;;;;4693176;30;20048;-79
2021/12/03 08:34:58;;;;;;;37.70;19.97;;;1.70;99.90;;;;;;4684294;30;20320;-80
2021/12/03 08:37:24;;;;;;;36.00;19.90;;;1.80;99.90;;;;;;4684945;30;20124;-79
2021/12/03 08:39:50;;;;;;;36.30;19.80;;;1.80;99.90;;;;;;4695705;30;20412;-79
2021/12/03 08:42:18;;;;;;;41.37;20.40;;;1.90;99.90;;;;;;4686264;30;20053;-78
2021/12/03 08:44:43;;;;;;;39.83;20.90;;;1.80;99.90;;;;;;4684899;30;20072;-79
2021/12/03 08:47:09;;;;;;;40.87;22.00;;;1.80;99.90;;;;;;4685874;30;20777;-79
2021/12/03 08:49:38;;;;;;;40.60;21.03;;;1.90;99.90;;;;;;4680501;30;20060;-78
2021/12/03 08:54:49;;;;;;;43.40;23.00;;;2.00;99.90;;;;;;4695595;30;20316;-79
2021/12/03 08:57:16;;;;;;;47.60;23.97;;;2.00;99.90;;;;;;4687011;30;20307;-79
2021/12/03 08:59:42;;;;;;;47.97;25.10;;;2.00;99.90;;;;;;4698424;30;20785;-79
2021/12/03 09:02:09;;;;;;;50.87;23.50;;;2.10;99.90;;;;;;4687577;30;20391;-79
2021/12/03 09:04:34;;;;;;;48.70;25.63;;;2.10;99.90;;;;;;4699253;30;20042;-80
2021/12/03 09:07:01;;;;;;;47.77;24.97;;;2.10;99.90;;;;;;4675884;30;20056;-80
2021/12/03 09:09:27;;;;;;;47.57;25.33;;;2.20;99.90;;;;;;4697270;30;20064;-79
2021/12/03 09:11:54;;;;;;;47.80;25.17;;;2.20;99.90;;;;;;4670406;30;20323;-80
2021/12/03 09:14:37;;;;;;;51.63;25.70;;;2.20;99.90;;;;;;4697310;30;20383;-79
2021/12/03 09:19:45;;;;;;;52.00;25.70;;;2.30;99.90;;;;;;4684313;30;20057;-79
2021/12/03 09:22:17;;;;;;;58.20;28.53;;;2.30;99.90;;;;;;4683134;30;20915;-79
2021/12/03 09:24:42;;;;;;;56.83;27.58;;;2.30;99.90;;;;;;4679929;30;20305;-79
2021/12/03 09:27:08;;;;;;;58.23;28.27;;;2.40;99.90;;;;;;4697185;30;20060;-79
2021/12/03 09:29:36;;;;;;;56.87;28.23;;;2.40;99.90;;;;;;4682665;30;20041;-79
2021/12/03 09:32:02;;;;;;;54.60;28.43;;;2.40;99.90;;;;;;4669343;30;20136;-79
2021/12/03 09:34:31;;;;;;;57.43;28.80;;;2.40;99.90;;;;;;4681553;30;20119;-79
2021/12/03 09:36:57;;;;;;;58.47;26.57;;;2.40;99.90;;;;;;4698733;30;20328;-79
2021/12/03 09:39:24;;;;;;;61.23;28.83;;;2.50;99.90;;;;;;4684637;30;20049;-78
2021/12/03 09:41:52;;;;;;;58.37;26.43;;;2.60;99.90;;;;;;4674576;30;20799;-79
2021/12/03 09:44:19;;;;;;;62.57;28.63;;;2.50;99.90;;;;;;4699374;30;20816;-79
2021/12/03 09:46:47;;;;;;;51.63;26.77;;;2.60;99.90;;;;;;4697207;30;20299;-79
2021/12/03 09:49:26;;;;;;;59.50;26.73;;;2.60;99.90;;;;;;4683416;30;20131;-79
2021/12/03 09:54:30;;;;;;;59.23;26.27;;;2.70;99.90;;;;;;4699763;30;20146;-79
2021/12/03 09:57:02;;;;;;;58.60;25.63;;;2.70;99.90;;;;;;4683630;30;20041;-79
2021/12/03 10:04:50;;;;;;;49.67;23.87;;;2.80;99.90;;;;;;4685706;30;20076;-79
2021/12/03 10:12:45;;;;;;;54.33;24.88;;;2.90;99.90;;;;;;4696027;30;20053;-79
2021/12/03 10:26:25;;;;;;;49.00;21.47;;;3.10;99.90;;;;;;4696606;30;20149;-78
2021/12/03 10:41:59;;;;;;;41.00;17.83;;;3.30;99.90;;;;;;4684181;30;20057;-78
2021/12/03 10:44:50;;;;;;;43.60;17.70;;;3.20;99.90;;;;;;4696317;30;20059;-80
2021/12/03 10:47:53;;;;;;;45.88;17.25;;;3.30;99.90;;;;;;4682576;30;20499;-79
2021/12/03 11:26:55;;;;;;;27.37;9.90;;;3.50;99.90;;;;;;4694690;30;20148;-80
2021/12/03 11:31:22;;;;;;;21.03;8.80;;;3.50;99.90;;;;;;4683685;30;20054;-81
2021/12/03 12:34:19;;;;;;;12.33;6.60;;;3.10;99.90;;;;;;4695299;30;20289;-80
2021/12/03 13:58:42;;;;;;;13.10;7.57;;;3.50;99.90;;;;;;4698662;30;20041;-80
2021/12/03 14:03:13;;;;;;;18.50;7.50;;;3.50;99.90;;;;;;4699910;30;20114;-79
2021/12/03 14:37:19;;;;;;;13.20;7.13;;;3.70;99.90;;;;;;4696750;30;20198;-79
2021/12/03 14:45:07;;;;;;;11.67;6.90;;;3.80;99.90;;;;;;4695815;30;20061;-80
2021/12/03 14:47:47;;;;;;;13.83;6.80;;;3.80;99.90;;;;;;4679111;30;20508;-79
2021/12/03 14:55:34;;;;;;;14.33;7.17;;;3.90;99.90;;;;;;4695832;30;20058;-78
2021/12/03 14:58:07;;;;;;;12.07;7.23;;;3.90;99.90;;;;;;4667853;30;20195;-80
2021/12/03 15:03:15;;;;;;;13.60;7.73;;;3.90;99.90;;;;;;4696946;30;20053;-80
2021/12/03 15:06:27;;;;;;;14.37;6.80;;;4.00;99.90;;;;;;4687365;30;20059;-79
2021/12/03 15:09:00;;;;;;;15.57;6.85;;;4.00;99.90;;;;;;4679818;30;20049;-80
2021/12/03 15:12:03;;;;;;;11.50;6.60;;;4.00;99.90;;;;;;4702725;30;20537;-79
2021/12/03 15:14:56;;;;;;;11.00;7.37;;;4.10;99.90;;;;;;4697081;30;20057;-80
2021/12/03 15:33:22;;;;;;;12.37;7.93;;;4.10;99.90;;;;;;4696511;30;20053;-79
2021/12/03 15:38:38;;;;;;;16.03;8.03;;;4.20;99.90;;;;;;4689294;30;20061;-79
2021/12/03 15:41:29;;;;;;;11.43;8.33;;;4.20;99.90;;;;;;4691838;30;20186;-79
2021/12/03 15:54:44;;;;;;;14.07;8.70;;;4.20;99.90;;;;;;4696121;30;20136;-81
2021/12/03 16:10:32;;;;;;;10.98;8.38;;;4.10;99.90;;;;;;4703542;30;20651;-81
2021/12/03 16:23:52;;;;;;;17.20;9.93;;;4.20;99.90;;;;;;4690032;30;20115;-80
2021/12/03 16:26:32;;;;;;;17.43;10.47;;;4.20;99.90;;;;;;4673615;30;20045;-81
2021/12/03 16:51:10;;;;;;;19.67;12.23;;;4.20;99.90;;;;;;4691224;30;20081;-81
2021/12/03 16:53:36;;;;;;;17.87;12.17;;;4.20;99.90;;;;;;4700341;30;20053;-80
2021/12/03 16:58:33;;;;;;;18.73;12.07;;;4.20;99.90;;;;;;4711783;30;20132;-81
2021/12/03 17:01:05;;;;;;;17.57;12.97;;;4.20;99.90;;;;;;4671889;30;20452;-81
2021/12/03 17:09:11;;;;;;;18.93;13.70;;;4.20;99.90;;;;;;4702476;30;20114;-80
2021/12/03 17:46:31;;;;;;;21.73;15.37;;;4.30;99.90;;;;;;4681941;30;20045;-80
2021/12/03 17:56:51;;;;;;;23.87;15.53;;;4.20;99.90;;;;;;4686515;30;20057;-80
2021/12/03 17:59:21;;;;;;;25.77;15.53;;;4.30;99.90;;;;;;4689164;30;20101;-80
2021/12/03 18:02:01;;;;;;;28.13;17.20;;;4.30;99.90;;;;;;4703206;30;20057;-79
2021/12/03 18:04:45;;;;;;;28.60;17.23;;;4.30;99.90;;;;;;4699068;30;20092;-80
2021/12/03 18:07:23;;;;;;;24.27;16.60;;;4.30;99.90;;;;;;4700583;30;20111;-80
2021/12/03 18:48:25;;;;;;;28.52;17.92;;;4.40;99.90;;;;;;4696999;30;20045;-81
2021/12/03 18:56:17;;;;;;;30.60;18.55;;;4.50;99.90;;;;;;4691075;30;20423;-80
2021/12/03 18:58:42;;;;;;;31.73;19.03;;;4.40;99.90;;;;;;4672587;30;20452;-81
2021/12/03 19:01:08;;;;;;;28.73;18.37;;;4.40;99.90;;;;;;4675057;30;20045;-81
2021/12/03 19:08:51;;;;;;;35.50;19.30;;;4.50;99.90;;;;;;4680655;30;20053;-81
2021/12/03 19:11:34;;;;;;;29.93;18.43;;;4.50;99.90;;;;;;4692969;30;20053;-80
2021/12/03 19:14:00;;;;;;;30.97;19.87;;;4.40;99.90;;;;;;4684220;30;20049;-80
2021/12/03 19:16:26;;;;;;;31.93;18.97;;;4.50;99.90;;;;;;4699459;30;20057;-81
2021/12/03 19:18:55;;;;;;;36.93;20.33;;;4.50;99.90;;;;;;4694658;30;20052;-81
2021/12/03 19:21:28;;;;;;;32.93;19.73;;;4.40;99.90;;;;;;4690513;30;20136;-81
2021/12/03 19:24:01;;;;;;;36.37;20.57;;;4.50;99.90;;;;;;4692491;30;20430;-81
2021/12/03 19:26:44;;;;;;;36.20;20.53;;;4.50;99.90;;;;;;4696446;30;20046;-82
2021/12/03 19:29:20;;;;;;;34.13;20.57;;;4.50;99.90;;;;;;4694480;30;20048;-82
2021/12/03 19:31:51;;;;;;;38.97;21.23;;;4.50;99.90;;;;;;4677763;30;20690;-81
2021/12/03 19:34:35;;;;;;;32.40;19.47;;;4.50;99.90;;;;;;4692398;30;20454;-81
2021/12/03 19:37:02;;;;;;;36.87;21.23;;;4.50;99.90;;;;;;4679566;30;20376;-80
2021/12/03 19:39:43;;;;;;;39.47;21.30;;;4.60;99.90;;;;;;4662077;30;20042;-82
2021/12/03 19:42:16;;;;;;;38.38;20.52;;;4.60;99.90;;;;;;4679652;30;20401;-81
2021/12/03 19:44:46;;;;;;;36.43;20.03;;;4.60;99.90;;;;;;4697056;30;20116;-82
2021/12/03 19:47:14;;;;;;;35.00;20.63;;;4.60;99.90;;;;;;4692779;30;20064;-81
2021/12/03 19:49:47;;;;;;;36.53;20.83;;;4.60;99.90;;;;;;4690473;30;20585;-81
2021/12/03 19:52:26;;;;;;;38.30;21.30;;;4.60;99.90;;;;;;4677937;30;20061;-81
2021/12/03 19:55:12;;;;;;;36.22;21.45;;;4.60;99.90;;;;;;4691543;30;20061;-81
2021/12/03 19:57:37;;;;;;;;;;;4.70;99.90;;;;;;4692657;30;20108;-81
2021/12/03 20:00:07;;;;;;;37.10;19.87;;;4.60;99.90;;;;;;4693493;30;19923;-81
2021/12/03 20:02:33;;;;;;;35.63;20.80;;;4.60;99.90;;;;;;4668855;30;20057;-81
2021/12/03 20:04:59;;;;;;;39.67;20.97;;;4.60;99.90;;;;;;4691648;30;20045;-81
2021/12/03 20:07:28;;;;;;;37.67;20.10;;;4.60;99.90;;;;;;4664308;30;20122;-81
2021/12/03 20:12:50;;;;;;;37.63;20.60;;;4.60;99.90;;;;;;4673103;30;20630;-81
2021/12/03 20:20:48;;;;;;;34.40;19.13;;;4.60;99.90;;;;;;4691607;30;20552;-81